createdAt,value
2022-10-23T00:00:24.657Z,11.03
2022-10-23T00:01:24.582Z,11.05
2022-10-23T00:02:24.639Z,11.05
2022-10-23T00:03:24.697Z,11.03
2022-10-23T00:04:24.496Z,11.03
2022-10-23T00:05:24.700Z,11.01
2022-10-23T00:06:24.586Z,11.01
2022-10-23T00:07:24.443Z,10.98
2022-10-23T00:08:24.412Z,10.98
2022-10-23T00:09:24.426Z,10.98
2022-10-23T00:10:24.585Z,10.95
2022-10-23T00:11:24.428Z,10.93
2022-10-23T00:12:24.463Z,10.93
2022-10-23T00:13:24.353Z,10.94
2022-10-23T00:14:24.378Z,10.91
2022-10-23T00:15:24.517Z,10.91
2022-10-23T00:16:24.378Z,10.93
2022-10-23T00:17:24.332Z,10.91
2022-10-23T00:18:24.577Z,10.91
2022-10-23T00:19:24.384Z,10.91
2022-10-23T00:20:24.399Z,10.91
2022-10-23T00:21:24.306Z,10.91
2022-10-23T00:22:24.278Z,10.88
2022-10-23T00:23:24.269Z,10.88
2022-10-23T00:24:24.211Z,10.87
2022-10-23T00:25:24.267Z,10.87
2022-10-23T00:26:24.257Z,10.86
2022-10-23T00:27:24.413Z,10.86
2022-10-23T00:28:24.293Z,10.83
2022-10-23T00:29:24.146Z,10.83
2022-10-23T00:30:24.152Z,10.84
2022-10-23T00:31:24.265Z,10.83
2022-10-23T00:32:24.324Z,10.83
2022-10-23T00:33:24.199Z,10.81
2022-10-23T00:34:24.089Z,10.81
2022-10-23T00:35:24.208Z,10.80
2022-10-23T00:36:24.134Z,10.78
2022-10-23T00:37:24.241Z,10.78
2022-10-23T00:38:24.143Z,10.78
2022-10-23T00:39:24.083Z,10.78
2022-10-23T00:40:24.064Z,10.76
2022-10-23T00:41:24.050Z,10.75
2022-10-23T00:42:24.043Z,10.75
2022-10-23T00:43:23.974Z,10.75
2022-10-23T00:44:23.957Z,10.75
2022-10-23T00:45:23.950Z,10.73
2022-10-23T00:46:23.965Z,10.72
2022-10-23T00:47:23.922Z,10.72
2022-10-23T00:48:23.945Z,10.72
2022-10-23T00:49:23.935Z,10.70
2022-10-23T00:50:23.882Z,10.70
2022-10-23T00:51:23.917Z,10.70
2022-10-23T00:52:23.841Z,10.70
2022-10-23T00:53:23.915Z,10.70
2022-10-23T00:54:25.070Z,10.69
2022-10-23T00:55:23.925Z,10.69
2022-10-23T00:56:23.810Z,10.69
2022-10-23T00:57:23.853Z,10.70
2022-10-23T00:58:23.762Z,10.69
2022-10-23T00:59:23.766Z,10.69
2022-10-23T01:00:23.803Z,10.68
2022-10-23T01:01:24.004Z,10.68
2022-10-23T01:02:23.905Z,10.66
2022-10-23T01:03:23.737Z,10.65
2022-10-23T01:04:23.689Z,10.66
2022-10-23T01:05:23.678Z,10.66
2022-10-23T01:06:23.762Z,10.65
2022-10-23T01:07:23.682Z,10.65
2022-10-23T01:08:23.665Z,10.65
2022-10-23T01:09:23.633Z,10.63
2022-10-23T01:10:23.677Z,10.63
2022-10-23T01:11:23.597Z,10.62
2022-10-23T01:12:23.638Z,10.62
2022-10-23T01:13:23.640Z,10.60
2022-10-23T01:14:23.571Z,10.60
2022-10-23T01:15:23.579Z,10.58
2022-10-23T01:16:23.577Z,10.58
2022-10-23T01:17:23.572Z,10.57
2022-10-23T01:18:23.544Z,10.57
2022-10-23T01:19:23.514Z,10.55
2022-10-23T01:20:23.519Z,10.55
2022-10-23T01:21:23.464Z,10.55
2022-10-23T01:23:23.553Z,10.54
2022-10-23T01:24:23.484Z,10.54
2022-10-23T01:25:23.434Z,10.54
2022-10-23T01:26:23.539Z,10.51
2022-10-23T01:27:23.463Z,10.49
2022-10-23T01:28:23.406Z,10.47
2022-10-23T01:29:23.518Z,10.47
2022-10-23T01:30:23.409Z,10.46
2022-10-23T01:31:23.386Z,10.46
2022-10-23T01:32:23.431Z,10.46
2022-10-23T01:33:23.409Z,10.46
2022-10-23T01:34:23.380Z,10.46
2022-10-23T01:35:23.362Z,10.44
2022-10-23T01:36:23.319Z,10.46
2022-10-23T01:37:23.283Z,10.44
2022-10-23T01:38:23.331Z,10.44
2022-10-23T01:39:23.469Z,10.46
2022-10-23T01:40:23.271Z,10.43
2022-10-23T01:41:23.403Z,10.43
2022-10-23T01:42:23.210Z,10.43
2022-10-23T01:43:23.221Z,10.43
2022-10-23T01:44:23.193Z,10.43
2022-10-23T01:45:23.264Z,10.42
2022-10-23T01:46:23.151Z,10.43
2022-10-23T01:47:23.233Z,10.42
2022-10-23T01:48:23.148Z,10.42
2022-10-23T01:49:23.181Z,10.43
2022-10-23T01:50:23.151Z,10.42
2022-10-23T01:51:23.183Z,10.43
2022-10-23T01:52:23.141Z,10.43
2022-10-23T01:53:23.177Z,10.42
2022-10-23T01:54:23.105Z,10.42
2022-10-23T01:55:23.140Z,10.42
2022-10-23T01:56:23.043Z,10.43
2022-10-23T01:57:22.994Z,10.42
2022-10-23T01:58:23.043Z,10.42
2022-10-23T01:59:22.986Z,10.42
2022-10-23T02:00:23.139Z,10.42
2022-10-23T02:01:23.078Z,10.42
2022-10-23T02:02:23.018Z,10.39
2022-10-23T02:03:22.941Z,10.42
2022-10-23T02:04:22.921Z,10.38
2022-10-23T02:05:22.980Z,10.39
2022-10-23T02:06:22.884Z,10.38
2022-10-23T02:07:22.890Z,10.36
2022-10-23T02:08:22.839Z,10.36
2022-10-23T02:09:22.933Z,10.35
2022-10-23T02:10:22.890Z,10.34
2022-10-23T02:11:22.844Z,10.34
2022-10-23T02:12:22.936Z,10.35
2022-10-23T02:13:22.783Z,10.34
2022-10-23T02:14:22.811Z,10.32
2022-10-23T02:15:22.774Z,10.34
2022-10-23T02:16:22.845Z,10.32
2022-10-23T02:17:22.787Z,10.32
2022-10-23T02:18:22.825Z,10.31
2022-10-23T02:19:22.775Z,10.31
2022-10-23T02:20:22.826Z,10.29
2022-10-23T02:21:22.732Z,10.31
2022-10-23T02:22:22.706Z,10.29
2022-10-23T02:23:22.680Z,10.28
2022-10-23T02:24:22.791Z,10.29
2022-10-23T02:25:23.047Z,10.29
2022-10-23T02:26:22.638Z,10.29
2022-10-23T02:27:22.610Z,10.28
2022-10-23T02:28:22.737Z,10.26
2022-10-23T02:29:22.635Z,10.25
2022-10-23T02:30:22.658Z,10.24
2022-10-23T02:31:22.573Z,10.24
2022-10-23T02:32:22.587Z,10.22
2022-10-23T02:33:22.584Z,10.24
2022-10-23T02:34:22.495Z,10.24
2022-10-23T02:35:22.594Z,10.24
2022-10-23T02:36:22.558Z,10.24
2022-10-23T02:38:22.513Z,10.22
2022-10-23T02:39:22.468Z,10.24
2022-10-23T02:40:22.539Z,10.20
2022-10-23T02:41:22.410Z,10.22
2022-10-23T02:42:22.488Z,10.20
2022-10-23T02:43:22.419Z,10.24
2022-10-23T02:44:22.468Z,10.20
2022-10-23T02:45:22.478Z,10.18
2022-10-23T02:46:22.449Z,10.18
2022-10-23T02:47:22.413Z,10.16
2022-10-23T02:48:22.539Z,10.18
2022-10-23T02:49:22.334Z,10.18
2022-10-23T02:50:22.351Z,10.18
2022-10-23T02:51:22.297Z,10.18
2022-10-23T02:52:22.251Z,10.18
2022-10-23T02:53:22.293Z,10.18
2022-10-23T02:54:22.261Z,10.22
2022-10-23T02:55:22.365Z,10.20
2022-10-23T02:56:22.257Z,10.20
2022-10-23T02:57:22.279Z,10.20
2022-10-23T02:58:22.293Z,10.18
2022-10-23T02:59:22.236Z,10.18
2022-10-23T03:00:22.194Z,10.18
2022-10-23T03:01:22.267Z,10.17
2022-10-23T03:02:22.327Z,10.17
2022-10-23T03:03:22.199Z,10.17
2022-10-23T03:04:22.246Z,10.17
2022-10-23T03:05:22.237Z,10.17
2022-10-23T03:06:22.216Z,10.16
2022-10-23T03:07:22.144Z,10.14
2022-10-23T03:08:22.077Z,10.16
2022-10-23T03:09:22.063Z,10.13
2022-10-23T03:10:22.116Z,10.11
2022-10-23T03:11:22.065Z,10.13
2022-10-23T03:12:21.983Z,10.13
2022-10-23T03:13:22.069Z,10.11
2022-10-23T03:14:22.014Z,10.11
2022-10-23T03:15:21.997Z,10.11
2022-10-23T03:16:21.965Z,10.11
2022-10-23T03:17:22.053Z,10.11
2022-10-23T03:18:22.007Z,10.13
2022-10-23T03:19:21.924Z,10.11
2022-10-23T03:20:21.938Z,10.10
2022-10-23T03:21:21.994Z,10.10
2022-10-23T03:22:21.963Z,10.11
2022-10-23T03:23:21.871Z,10.10
2022-10-23T03:24:21.901Z,10.10
2022-10-23T03:25:21.839Z,10.10
2022-10-23T03:26:21.854Z,10.09
2022-10-23T03:27:21.971Z,10.10
2022-10-23T03:28:21.863Z,10.07
2022-10-23T03:29:21.857Z,10.07
2022-10-23T03:30:21.795Z,10.09
2022-10-23T03:31:21.813Z,10.09
2022-10-23T03:32:21.733Z,10.10
2022-10-23T03:33:21.762Z,10.10
2022-10-23T03:34:21.724Z,10.10
2022-10-23T03:35:21.744Z,10.10
2022-10-23T03:36:21.693Z,10.09
2022-10-23T03:37:21.741Z,10.09
2022-10-23T03:38:21.667Z,10.07
2022-10-23T03:39:21.703Z,10.07
2022-10-23T03:40:21.671Z,10.07
2022-10-23T03:41:21.696Z,10.07
2022-10-23T03:42:21.645Z,10.07
2022-10-23T03:43:21.580Z,10.06
2022-10-23T03:44:21.734Z,10.06
2022-10-23T03:45:21.624Z,10.06
2022-10-23T03:46:21.617Z,10.04
2022-10-23T03:47:21.618Z,10.04
2022-10-23T03:48:21.642Z,10.02
2022-10-23T03:49:21.564Z,10.04
2022-10-23T03:50:21.671Z,10.04
2022-10-23T03:51:21.523Z,10.01
2022-10-23T03:52:21.493Z,10.01
2022-10-23T03:53:21.476Z,9.99
2022-10-23T03:54:21.468Z,9.98
2022-10-23T03:55:21.499Z,9.99
2022-10-23T03:56:21.459Z,9.99
2022-10-23T03:57:21.379Z,9.99
2022-10-23T03:58:21.407Z,9.98
2022-10-23T03:59:21.499Z,9.98
2022-10-23T04:00:21.482Z,9.98
2022-10-23T04:01:21.460Z,9.99
2022-10-23T04:02:21.518Z,9.99
2022-10-23T04:03:21.358Z,9.98
2022-10-23T04:04:21.309Z,9.98
2022-10-23T04:05:21.330Z,9.99
2022-10-23T04:06:21.378Z,9.99
2022-10-23T04:07:21.333Z,9.98
2022-10-23T04:08:21.238Z,9.96
2022-10-23T04:09:21.288Z,9.96
2022-10-23T04:10:21.288Z,9.98
2022-10-23T04:11:21.253Z,9.96
2022-10-23T04:12:21.290Z,9.98
2022-10-23T04:13:21.242Z,9.98
2022-10-23T04:14:21.281Z,9.99
2022-10-23T04:15:21.261Z,9.99
2022-10-23T04:16:21.198Z,9.98
2022-10-23T04:17:21.188Z,9.98
2022-10-23T04:18:21.186Z,9.98
2022-10-23T04:19:21.224Z,9.99
2022-10-23T04:20:21.441Z,10.01
2022-10-23T04:21:21.127Z,9.99
2022-10-23T04:22:24.676Z,10.01
2022-10-23T04:23:22.092Z,9.98
2022-10-23T04:24:21.133Z,9.99
2022-10-23T04:25:21.535Z,9.98
2022-10-23T04:26:21.076Z,9.96
2022-10-23T04:27:21.095Z,9.96
2022-10-23T04:28:21.086Z,9.95
2022-10-23T04:29:21.002Z,9.95
2022-10-23T04:30:21.114Z,9.95
2022-10-23T04:31:21.025Z,9.96
2022-10-23T04:32:21.001Z,9.95
2022-10-23T04:33:21.052Z,9.95
2022-10-23T04:34:20.910Z,9.93
2022-10-23T04:35:20.966Z,9.93
2022-10-23T04:36:20.970Z,9.93
2022-10-23T04:37:20.939Z,9.95
2022-10-23T04:38:20.965Z,9.95
2022-10-23T04:39:20.887Z,9.95
2022-10-23T04:40:20.975Z,9.96
2022-10-23T04:41:20.914Z,9.96
2022-10-23T04:42:20.933Z,9.96
2022-10-23T04:43:20.792Z,9.98
2022-10-23T04:44:20.877Z,9.96
2022-10-23T04:45:20.886Z,9.98
2022-10-23T04:46:20.888Z,9.98
2022-10-23T04:47:20.855Z,9.98
2022-10-23T04:48:23.382Z,9.98
2022-10-23T04:49:20.826Z,9.96
2022-10-23T04:50:20.822Z,9.98
2022-10-23T04:51:20.766Z,9.98
2022-10-23T04:52:20.823Z,9.98
2022-10-23T04:53:20.835Z,9.96
2022-10-23T04:54:20.740Z,9.96
2022-10-23T04:55:20.712Z,9.96
2022-10-23T04:56:20.808Z,9.95
2022-10-23T04:57:20.759Z,9.95
2022-10-23T04:58:20.676Z,9.95
2022-10-23T04:59:20.684Z,9.96
2022-10-23T05:00:20.645Z,9.96
2022-10-23T05:01:20.663Z,9.96
2022-10-23T05:02:20.711Z,9.96
2022-10-23T05:03:20.634Z,9.95
2022-10-23T05:04:20.574Z,9.95
2022-10-23T05:05:20.576Z,9.95
2022-10-23T05:06:20.551Z,9.93
2022-10-23T05:08:20.573Z,9.93
2022-10-23T05:09:20.550Z,9.93
2022-10-23T05:10:20.514Z,9.93
2022-10-23T05:11:20.526Z,9.95
2022-10-23T05:12:20.474Z,9.96
2022-10-23T05:13:20.510Z,9.95
2022-10-23T05:14:22.690Z,9.96
2022-10-23T05:15:20.529Z,9.96
2022-10-23T05:16:20.436Z,9.98
2022-10-23T05:17:20.465Z,9.96
2022-10-23T05:18:20.367Z,9.96
2022-10-23T05:19:23.341Z,9.96
2022-10-23T05:20:20.302Z,9.98
2022-10-23T05:21:20.325Z,9.96
2022-10-23T05:22:20.420Z,9.99
2022-10-23T05:23:20.347Z,9.99
2022-10-23T05:24:20.395Z,10.02
2022-10-23T05:25:20.352Z,10.01
2022-10-23T05:26:20.418Z,10.01
2022-10-23T05:27:20.322Z,9.99
2022-10-23T05:28:20.376Z,10.01
2022-10-23T05:29:20.303Z,10.02
2022-10-23T05:30:20.259Z,10.02
2022-10-23T05:31:20.322Z,10.02
2022-10-23T05:33:20.227Z,10.02
2022-10-23T05:34:20.163Z,10.02
2022-10-23T05:35:20.145Z,10.02
2022-10-23T05:36:20.283Z,10.02
2022-10-23T05:37:20.322Z,9.99
2022-10-23T05:38:20.166Z,10.02
2022-10-23T05:39:20.178Z,10.02
2022-10-23T05:40:20.190Z,10.02
2022-10-23T05:41:20.120Z,10.01
2022-10-23T05:42:20.106Z,10.04
2022-10-23T05:43:20.123Z,10.04
2022-10-23T05:44:20.031Z,10.04
2022-10-23T05:45:20.031Z,10.04
2022-10-23T05:46:20.103Z,10.04
2022-10-23T05:47:20.049Z,10.04
2022-10-23T05:48:30.024Z,10.02
2022-10-23T05:49:20.941Z,10.04
2022-10-23T05:50:20.039Z,10.02
2022-10-23T05:51:20.009Z,10.04
2022-10-23T05:52:20.083Z,10.06
2022-10-23T05:53:19.935Z,10.04
2022-10-23T05:54:19.976Z,10.04
2022-10-23T05:55:20.071Z,10.06
2022-10-23T05:56:20.111Z,10.02
2022-10-23T05:57:20.018Z,10.04
2022-10-23T05:58:20.015Z,10.04
2022-10-23T05:59:22.884Z,10.06
2022-10-23T06:00:19.975Z,10.04
2022-10-23T06:01:20.054Z,10.04
2022-10-23T06:02:19.979Z,10.06
2022-10-23T06:03:19.843Z,10.06
2022-10-23T06:04:19.762Z,10.06
2022-10-23T06:05:19.909Z,10.06
2022-10-23T06:06:19.855Z,10.04
2022-10-23T06:07:19.817Z,10.06
2022-10-23T06:08:19.762Z,10.04
2022-10-23T06:09:19.761Z,10.06
2022-10-23T06:10:19.755Z,10.02
2022-10-23T06:11:20.188Z,10.04
2022-10-23T06:12:19.721Z,10.02
2022-10-23T06:13:19.697Z,10.02
2022-10-23T06:14:19.857Z,10.04
2022-10-23T06:15:19.706Z,10.02
2022-10-23T06:16:19.727Z,10.04
2022-10-23T06:17:19.638Z,10.02
2022-10-23T06:18:19.627Z,10.01
2022-10-23T06:19:19.661Z,10.02
2022-10-23T06:20:19.615Z,9.99
2022-10-23T06:21:19.696Z,9.99
2022-10-23T06:23:19.588Z,9.99
2022-10-23T06:24:19.558Z,9.99
2022-10-23T06:25:19.823Z,9.99
2022-10-23T06:26:19.609Z,9.98
2022-10-23T06:27:19.612Z,9.99
2022-10-23T06:28:20.681Z,9.99
2022-10-23T06:29:19.503Z,10.01
2022-10-23T06:30:19.479Z,10.01
2022-10-23T06:31:19.570Z,10.01
2022-10-23T06:32:19.521Z,10.01
2022-10-23T06:33:19.442Z,10.02
2022-10-23T06:34:19.442Z,10.04
2022-10-23T06:35:19.434Z,10.04
2022-10-23T06:36:19.784Z,10.02
2022-10-23T06:37:19.488Z,10.02
2022-10-23T06:38:19.486Z,10.04
2022-10-23T06:39:19.404Z,10.04
2022-10-23T06:40:19.384Z,10.04
2022-10-23T06:41:19.487Z,10.06
2022-10-23T06:42:19.350Z,10.07
2022-10-23T06:43:19.303Z,10.06
2022-10-23T06:44:19.340Z,10.07
2022-10-23T06:45:19.279Z,10.09
2022-10-23T06:46:19.236Z,10.07
2022-10-23T06:47:19.327Z,10.07
2022-10-23T06:48:19.262Z,10.09
2022-10-23T06:49:19.187Z,10.07
2022-10-23T06:50:19.234Z,10.09
2022-10-23T06:51:19.259Z,10.09
2022-10-23T06:52:41.759Z,10.09
2022-10-23T06:53:20.275Z,10.10
2022-10-23T06:54:19.208Z,10.10
2022-10-23T06:55:19.202Z,10.13
2022-10-23T06:56:19.243Z,10.14
2022-10-23T06:57:19.238Z,10.14
2022-10-23T06:58:19.107Z,10.14
2022-10-23T06:59:19.137Z,10.16
2022-10-23T07:00:19.060Z,10.17
2022-10-23T07:01:19.509Z,10.17
2022-10-23T07:02:19.084Z,10.17
2022-10-23T07:03:19.238Z,10.17
2022-10-23T07:04:19.123Z,10.20
2022-10-23T07:05:19.071Z,10.20
2022-10-23T07:06:19.023Z,10.20
2022-10-23T07:07:19.297Z,10.24
2022-10-23T07:08:18.974Z,10.22
2022-10-23T07:09:19.016Z,10.24
2022-10-23T07:10:19.014Z,10.26
2022-10-23T07:11:18.946Z,10.28
2022-10-23T07:12:18.940Z,10.28
2022-10-23T07:13:18.978Z,10.29
2022-10-23T07:14:18.996Z,10.29
2022-10-23T07:15:19.276Z,10.31
2022-10-23T07:16:18.930Z,10.32
2022-10-23T07:17:19.144Z,10.32
2022-10-23T07:18:18.894Z,10.34
2022-10-23T07:19:18.835Z,10.35
2022-10-23T07:20:18.760Z,10.38
2022-10-23T07:21:18.866Z,10.39
2022-10-23T07:22:18.787Z,10.42
2022-10-23T07:23:18.952Z,10.43
2022-10-23T07:24:18.775Z,10.44
2022-10-23T07:25:18.952Z,10.47
2022-10-23T07:26:18.729Z,10.49
2022-10-23T07:27:20.438Z,10.51
2022-10-23T07:28:31.312Z,10.54
2022-10-23T07:29:29.845Z,10.54
2022-10-23T07:30:36.063Z,10.55
2022-10-23T07:31:54.219Z,10.57
2022-10-23T07:32:44.975Z,10.58
2022-10-23T07:33:53.225Z,10.63
2022-10-23T07:41:01.812Z,10.76
2022-10-23T07:42:31.061Z,10.75
2022-10-23T07:46:19.006Z,10.84
2022-10-23T07:47:11.608Z,10.86
2022-10-23T07:48:09.376Z,10.88
2022-10-23T07:49:14.741Z,10.90
2022-10-23T07:50:08.814Z,10.91
2022-10-23T07:51:13.990Z,10.93
2022-10-23T07:52:07.430Z,10.93
2022-10-23T07:53:05.995Z,10.95
2022-10-23T07:54:05.923Z,10.95
2022-10-23T07:55:07.577Z,10.99
2022-10-23T07:56:03.385Z,10.99
2022-10-23T07:57:06.911Z,11.01
2022-10-23T07:58:09.916Z,11.01
2022-10-23T07:59:07.301Z,11.01
2022-10-23T08:00:02.150Z,11.02
2022-10-23T08:01:05.126Z,11.03
2022-10-23T08:02:04.332Z,11.03
2022-10-23T08:03:03.906Z,11.05
2022-10-23T08:04:03.745Z,11.06
2022-10-23T08:05:03.627Z,11.08
2022-10-23T08:06:03.727Z,11.09
2022-10-23T08:07:04.990Z,11.09
2022-10-23T08:08:02.787Z,11.11
2022-10-23T08:09:06.536Z,11.11
2022-10-23T08:10:11.119Z,11.11
2022-10-23T08:11:04.883Z,11.13
2022-10-23T08:12:04.283Z,11.16
2022-10-23T08:13:03.526Z,11.17
2022-10-23T08:14:04.839Z,11.19
2022-10-23T08:15:04.723Z,11.21
2022-10-23T08:16:04.669Z,11.23
2022-10-23T08:17:04.078Z,11.23
2022-10-23T08:18:04.796Z,11.24
2022-10-23T08:19:01.930Z,11.27
2022-10-23T08:20:03.782Z,11.28
2022-10-23T08:21:08.191Z,11.30
2022-10-23T08:22:06.505Z,11.33
2022-10-23T08:23:07.002Z,11.33
2022-10-23T08:24:04.681Z,11.35
2022-10-23T08:25:09.180Z,11.38
2022-10-23T08:26:04.880Z,11.41
2022-10-23T08:27:06.943Z,11.42
2022-10-23T08:28:06.201Z,11.44
2022-10-23T08:29:03.560Z,11.45
2022-10-23T08:30:02.937Z,11.48
2022-10-23T08:31:03.335Z,11.49
2022-10-23T08:32:05.741Z,11.49
2022-10-23T08:33:01.922Z,11.51
2022-10-23T08:34:08.755Z,11.53
2022-10-23T08:35:05.382Z,11.53
2022-10-23T08:36:05.223Z,11.54
2022-10-23T08:37:13.060Z,11.57
2022-10-23T08:38:06.495Z,11.57
2022-10-23T08:39:09.921Z,11.60
2022-10-23T08:40:10.381Z,11.60
2022-10-23T08:41:14.135Z,11.62
2022-10-23T08:42:08.487Z,11.63
2022-10-23T08:43:01.762Z,11.66
2022-10-23T08:44:01.477Z,11.66
2022-10-23T08:45:01.733Z,11.69
2022-10-23T08:46:03.351Z,11.69
2022-10-23T08:47:02.631Z,11.69
2022-10-23T08:48:01.521Z,11.70
2022-10-23T08:49:01.493Z,11.72
2022-10-23T08:50:07.500Z,11.74
2022-10-23T08:51:03.470Z,11.75
2022-10-23T08:52:07.209Z,11.77
2022-10-23T08:53:08.243Z,11.78
2022-10-23T08:54:01.647Z,11.79
2022-10-23T08:55:02.273Z,11.84
2022-10-23T08:56:03.011Z,11.85
2022-10-23T08:57:05.406Z,11.87
2022-10-23T08:58:02.819Z,11.93
2022-10-23T08:59:04.700Z,11.96
2022-10-23T09:00:08.038Z,11.98
2022-10-23T09:01:20.542Z,12.01
2022-10-23T09:02:12.584Z,12.04
2022-10-23T09:03:08.016Z,12.05
2022-10-23T09:04:09.115Z,12.12
2022-10-23T09:07:01.632Z,12.19
2022-10-23T09:07:51.032Z,12.22
2022-10-23T09:08:56.396Z,12.23
2022-10-23T09:09:47.845Z,12.29
2022-10-23T09:11:15.256Z,12.30
2022-10-23T09:11:56.640Z,12.36
2022-10-23T09:12:52.020Z,12.38
2022-10-23T09:13:46.801Z,12.40
2022-10-23T09:14:45.706Z,12.44
2022-10-23T09:15:49.170Z,12.46
2022-10-23T09:16:46.018Z,12.51
2022-10-23T09:17:46.728Z,12.54
2022-10-23T09:18:45.223Z,12.56
2022-10-23T09:19:44.640Z,12.59
2022-10-23T09:20:45.087Z,12.63
2022-10-23T09:21:46.614Z,12.67
2022-10-23T09:22:44.065Z,12.73
2022-10-23T09:23:44.104Z,12.77
2022-10-23T09:24:44.148Z,12.81
2022-10-23T09:25:45.210Z,12.87
2022-10-23T09:26:45.129Z,12.89
2022-10-23T09:27:46.193Z,12.94
2022-10-23T09:28:44.091Z,12.96
2022-10-23T09:29:47.683Z,12.99
2022-10-23T09:30:44.219Z,13.07
2022-10-23T09:31:47.660Z,13.10
2022-10-23T09:32:46.571Z,13.16
2022-10-23T09:33:45.448Z,13.21
2022-10-23T09:34:45.477Z,13.25
2022-10-23T09:35:47.552Z,13.27
2022-10-23T09:36:44.065Z,13.31
2022-10-23T09:37:46.407Z,13.35
2022-10-23T09:38:43.966Z,13.39
2022-10-23T09:39:43.822Z,13.44
2022-10-23T09:40:48.711Z,13.43
2022-10-23T09:41:45.012Z,13.46
2022-10-23T09:42:43.823Z,13.46
2022-10-23T09:43:44.044Z,13.50
2022-10-23T09:44:44.587Z,13.51
2022-10-23T09:45:44.917Z,13.54
2022-10-23T09:46:43.766Z,13.55
2022-10-23T09:47:44.886Z,13.57
2022-10-23T09:48:45.063Z,13.61
2022-10-23T09:49:47.232Z,13.62
2022-10-23T09:50:43.863Z,13.63
2022-10-23T09:51:50.360Z,13.68
2022-10-23T09:52:46.799Z,13.69
2022-10-23T09:53:44.587Z,13.72
2022-10-23T09:54:54.073Z,13.73
2022-10-23T09:55:43.938Z,13.79
2022-10-23T09:56:57.076Z,13.80
2022-10-23T09:57:56.009Z,13.84
2022-10-23T09:58:47.385Z,13.87
2022-10-23T09:59:44.315Z,13.91
2022-10-23T10:00:44.097Z,13.94
2022-10-23T10:01:44.054Z,13.98
2022-10-23T10:02:44.828Z,14.01
2022-10-23T10:04:06.669Z,14.04
2022-10-23T10:04:51.034Z,14.09
2022-10-23T10:05:59.061Z,14.13
2022-10-23T10:06:55.438Z,14.17
2022-10-23T10:07:54.124Z,14.23
2022-10-23T10:08:45.091Z,14.24
2022-10-23T10:09:51.618Z,14.27
2022-10-23T10:10:48.655Z,14.29
2022-10-23T10:11:47.518Z,14.31
2022-10-23T10:17:18.579Z,14.41
2022-10-23T10:18:13.662Z,14.41
2022-10-23T10:18:51.141Z,14.42
2022-10-23T10:54:31.890Z,15.43
2022-10-23T10:55:12.145Z,15.44
2022-10-23T10:56:16.064Z,15.46
2022-10-23T11:03:00.549Z,15.55
2022-10-23T11:03:39.999Z,15.53
2022-10-23T11:04:38.187Z,15.55
2022-10-23T11:05:39.600Z,15.56
2022-10-23T11:06:40.550Z,15.58
2022-10-23T11:07:36.392Z,15.62
2022-10-23T11:08:44.666Z,15.66
2022-10-23T11:09:40.263Z,15.66
2022-10-23T11:10:36.290Z,15.66
2022-10-23T11:11:39.220Z,15.67
2022-10-23T11:12:37.170Z,15.67
2022-10-23T11:13:37.652Z,15.68
2022-10-23T11:14:38.088Z,15.68
2022-10-23T11:15:37.167Z,15.70
2022-10-23T11:16:36.569Z,15.70
2022-10-23T11:17:36.448Z,15.70
2022-10-23T11:18:37.113Z,15.70
2022-10-23T11:19:36.266Z,15.73
2022-10-23T11:20:36.287Z,15.71
2022-10-23T11:21:36.145Z,15.74
2022-10-23T11:22:36.537Z,15.73
2022-10-23T11:23:36.815Z,15.73
2022-10-23T11:24:36.411Z,15.74
2022-10-23T11:25:36.390Z,15.74
2022-10-23T11:26:36.460Z,15.77
2022-10-23T11:27:36.050Z,15.77
2022-10-23T11:28:36.741Z,15.77
2022-10-23T11:29:37.039Z,15.76
2022-10-23T11:30:36.153Z,15.80
2022-10-23T11:31:40.011Z,15.80
2022-10-23T11:32:39.565Z,15.80
2022-10-23T11:33:40.332Z,15.81
2022-10-23T11:34:38.761Z,15.84
2022-10-23T11:35:38.407Z,15.86
2022-10-23T11:36:40.278Z,15.85
2022-10-23T11:37:38.566Z,15.86
2022-10-23T11:38:37.146Z,15.88
2022-10-23T11:39:39.571Z,15.88
2022-10-23T11:40:39.610Z,15.89
2022-10-23T11:41:37.346Z,15.91
2022-10-23T11:42:39.024Z,15.92
2022-10-23T11:43:39.293Z,15.96
2022-10-23T11:44:37.700Z,15.98
2022-10-23T11:45:38.953Z,15.99
2022-10-23T11:46:40.364Z,15.99
2022-10-23T11:47:40.661Z,15.99
2022-10-23T11:48:39.840Z,15.99
2022-10-23T11:49:38.183Z,15.99
2022-10-23T11:50:45.767Z,16.01
2022-10-23T11:51:41.748Z,16.01
2022-10-23T11:52:50.820Z,16.03
2022-10-23T11:53:45.901Z,16.03
2022-10-23T11:54:38.166Z,16.06
2022-10-23T11:55:37.031Z,16.08
2022-10-23T11:56:36.628Z,16.10
2022-10-23T11:57:39.915Z,16.10
2022-10-23T11:58:38.495Z,16.10
2022-10-23T11:59:40.683Z,16.10
2022-10-23T12:00:41.168Z,16.11
2022-10-23T12:01:40.142Z,16.11
2022-10-23T12:02:37.597Z,16.10
2022-10-23T12:03:37.809Z,16.13
2022-10-23T12:04:39.904Z,16.13
2022-10-23T12:05:39.135Z,16.13
2022-10-23T12:06:42.437Z,16.14
2022-10-23T12:07:42.124Z,16.16
2022-10-23T12:08:38.286Z,16.16
2022-10-23T12:09:38.478Z,16.17
2022-10-23T12:10:44.299Z,16.18
2022-10-23T12:11:42.110Z,16.18
2022-10-23T12:12:38.946Z,16.18
2022-10-23T12:13:35.352Z,16.18
2022-10-23T12:14:42.579Z,16.18
2022-10-23T12:15:39.826Z,16.23
2022-10-23T12:16:37.989Z,16.25
2022-10-23T12:17:45.651Z,16.23
2022-10-23T12:18:39.907Z,16.25
2022-10-23T12:19:38.111Z,16.26
2022-10-23T12:20:40.319Z,16.26
2022-10-23T12:21:45.473Z,16.30
2022-10-23T12:22:42.157Z,16.30
2022-10-23T12:23:45.751Z,16.30
2022-10-23T12:24:37.750Z,16.34
2022-10-23T12:25:35.997Z,16.34
2022-10-23T12:26:39.651Z,16.36
2022-10-23T12:27:46.043Z,16.37
2022-10-23T12:28:39.670Z,16.37
2022-10-23T12:29:37.788Z,16.40
2022-10-23T12:30:39.999Z,16.42
2022-10-23T12:31:37.478Z,16.41
2022-10-23T12:32:40.518Z,16.45
2022-10-23T12:33:37.136Z,16.44
2022-10-23T12:34:39.927Z,16.45
2022-10-23T12:35:36.849Z,16.47
2022-10-23T12:36:35.300Z,16.47
2022-10-23T12:37:49.440Z,16.48
2022-10-23T12:38:53.626Z,16.51
2022-10-23T12:46:17.903Z,16.55
2022-10-23T12:47:16.805Z,16.55
2022-10-23T12:48:16.652Z,16.59
2022-10-23T12:49:17.547Z,16.57
2022-10-23T12:51:53.001Z,16.62
2022-10-23T12:52:48.285Z,16.63
2022-10-23T12:53:48.246Z,16.66
2022-10-23T12:54:46.806Z,16.67
2022-10-23T12:55:52.302Z,16.72
2022-10-23T12:56:46.995Z,16.70
2022-10-23T12:57:46.197Z,16.73
2022-10-23T12:58:46.827Z,16.77
2022-10-23T12:59:52.866Z,16.77
2022-10-23T13:00:49.400Z,16.78
2022-10-23T13:01:52.586Z,16.80
2022-10-23T13:02:50.990Z,16.82
2022-10-23T13:03:49.511Z,16.85
2022-10-23T13:04:45.940Z,16.88
2022-10-23T13:05:46.448Z,16.90
2022-10-23T13:06:46.644Z,16.92
2022-10-23T13:07:47.818Z,16.96
2022-10-23T13:08:47.100Z,16.96
2022-10-23T13:09:46.951Z,16.96
2022-10-23T13:10:48.682Z,16.98
2022-10-23T13:11:46.150Z,16.98
2022-10-23T13:12:48.208Z,17.00
2022-10-23T13:13:51.956Z,17.00
2022-10-23T13:14:48.663Z,17.02
2022-10-23T13:15:47.864Z,17.00
2022-10-23T13:16:48.772Z,17.05
2022-10-23T13:17:46.819Z,17.03
2022-10-23T13:18:52.720Z,17.05
2022-10-23T13:19:54.164Z,17.06
2022-10-23T13:20:50.800Z,17.06
2022-10-23T13:21:54.105Z,17.10
2022-10-23T13:22:54.199Z,17.14
2022-10-23T13:23:53.342Z,17.15
2022-10-23T13:24:49.270Z,17.17
2022-10-23T13:25:52.090Z,17.21
2022-10-23T13:26:46.444Z,17.24
2022-10-23T13:27:56.253Z,17.22
2022-10-23T13:28:54.305Z,17.24
2022-10-23T13:29:45.416Z,17.27
2022-10-23T13:30:48.907Z,17.28
2022-10-23T13:31:51.159Z,17.30
2022-10-23T13:32:53.717Z,17.35
2022-10-23T13:33:59.479Z,17.36
2022-10-23T13:34:53.752Z,17.39
2022-10-23T13:35:48.267Z,17.40
2022-10-23T13:36:53.284Z,17.43
2022-10-23T13:37:48.741Z,17.49
2022-10-23T13:38:53.579Z,17.51
2022-10-23T13:39:51.109Z,17.54
2022-10-23T13:40:50.494Z,17.57
2022-10-23T13:42:03.891Z,17.62
2022-10-23T13:50:49.690Z,17.76
2022-10-23T13:51:49.694Z,17.76
2022-10-23T13:52:50.193Z,17.77
2022-10-23T13:53:45.987Z,17.79
2022-10-23T13:54:44.008Z,17.80
2022-10-23T13:55:48.596Z,17.81
2022-10-23T13:56:46.328Z,17.84
2022-10-23T13:57:45.968Z,17.83
2022-10-23T13:58:43.890Z,17.84
2022-10-23T13:59:40.851Z,17.84
2022-10-23T14:00:41.919Z,17.87
2022-10-23T14:01:40.076Z,17.94
2022-10-23T14:02:38.976Z,17.96
2022-10-23T14:03:39.618Z,17.94
2022-10-23T14:04:42.054Z,17.96
2022-10-23T14:05:48.804Z,17.98
2022-10-23T14:06:40.545Z,18.01
2022-10-23T14:07:39.411Z,18.05
2022-10-23T14:08:39.581Z,18.07
2022-10-23T14:09:41.351Z,18.10
2022-10-23T14:10:38.904Z,18.10
2022-10-23T14:11:38.782Z,18.13